Time;durP1;ratioP1;P1;durP2;ratioP2;P2;SDS_P1;SDS_P2;PMS_P1;PMS_P2;Temp;Humidity;BMP_temperature;BMP_pressure;BME280_temperature;BME280_humidity;BME280_pressure;Samples;Min_cycle;Max_cycle;Signal;HPM_P1;HPM_P2
2021/10/06 00:02:10;;;;;;;2.70;0.70;;;10.80;99.90;;;;;;6652887;88;20216;-76
2021/10/06 00:12:10;;;;;;;1.40;0.70;;;10.80;99.90;;;;;;6649828;88;20206;-77
2021/10/06 00:22:11;;;;;;;3.12;0.70;;;10.70;99.90;;;;;;6646171;89;20197;-77
2021/10/06 00:32:12;;;;;;;1.67;0.62;;;10.80;99.90;;;;;;6643087;88;20207;-76
2021/10/06 00:42:12;;;;;;;5.47;0.70;;;10.80;99.90;;;;;;6634724;89;20212;-77
2021/10/06 00:52:15;;;;;;;3.45;0.60;;;10.80;99.90;;;;;;6639697;89;20582;-76
2021/10/06 01:02:15;;;;;;;1.67;0.52;;;10.90;99.90;;;;;;6658498;89;20567;-76
2021/10/06 01:12:19;;;;;;;5.53;0.68;;;11.00;99.90;;;;;;6656914;88;20176;-77
2021/10/06 01:22:19;;;;;;;2.17;0.68;;;11.10;99.90;;;;;;6650502;89;20200;-77
2021/10/06 01:32:20;;;;;;;3.12;0.80;;;11.30;99.90;;;;;;6648887;88;20736;-77
2021/10/06 01:42:21;;;;;;;2.42;0.60;;;11.20;99.90;;;;;;6648057;88;20199;-76
2021/10/06 01:52:24;;;;;;;2.10;0.50;;;11.20;99.90;;;;;;6648700;88;20219;-76
2021/10/06 02:02:24;;;;;;;3.03;0.70;;;11.30;99.90;;;;;;6648560;88;20250;-75
2021/10/06 02:12:25;;;;;;;2.58;0.60;;;11.40;99.90;;;;;;6648927;88;20237;-77
2021/10/06 02:22:26;;;;;;;4.00;0.60;;;11.40;99.90;;;;;;6649127;88;20218;-77
2021/10/06 02:32:27;;;;;;;2.30;0.60;;;11.30;99.90;;;;;;6647851;88;20213;-76
2021/10/06 02:42:27;;;;;;;3.37;0.70;;;11.30;99.90;;;;;;6647118;89;20268;-75
2021/10/06 02:52:28;;;;;;;4.57;0.77;;;11.40;99.90;;;;;;6647615;89;20257;-77
2021/10/06 03:02:28;;;;;;;2.15;0.52;;;11.40;99.90;;;;;;6647796;89;20280;-76
2021/10/06 03:12:29;;;;;;;3.78;0.70;;;11.50;99.90;;;;;;6644256;89;20258;-76
2021/10/06 03:22:29;;;;;;;4.72;0.73;;;11.40;99.90;;;;;;6647390;89;20196;-76
2021/10/06 03:32:30;;;;;;;4.97;0.80;;;11.50;99.90;;;;;;6647508;89;20692;-76
2021/10/06 03:42:30;;;;;;;3.55;0.65;;;11.40;99.90;;;;;;6647469;89;20690;-76
2021/10/06 03:52:32;;;;;;;3.95;1.02;;;11.40;99.90;;;;;;6647828;89;20423;-76
2021/10/06 04:02:32;;;;;;;6.85;0.93;;;11.10;99.90;;;;;;6651308;89;20188;-77
2021/10/06 04:12:33;;;;;;;6.40;1.00;;;11.00;99.90;;;;;;6648421;88;20206;-76
2021/10/06 04:22:34;;;;;;;4.90;0.73;;;11.10;99.90;;;;;;6646810;89;20288;-77
2021/10/06 04:32:34;;;;;;;5.80;0.90;;;10.80;99.90;;;;;;6646049;89;20267;-76
2021/10/06 04:42:35;;;;;;;7.18;1.10;;;10.80;99.90;;;;;;6633453;89;20270;-76
2021/10/06 04:52:36;;;;;;;2.58;0.90;;;10.60;99.90;;;;;;6646125;89;20242;-78
2021/10/06 05:02:36;;;;;;;5.35;0.93;;;10.60;99.90;;;;;;6651801;89;20395;-77
2021/10/06 05:12:37;;;;;;;3.12;0.82;;;10.70;99.90;;;;;;6653535;89;20239;-78
2021/10/06 05:22:38;;;;;;;4.10;0.90;;;10.70;99.90;;;;;;6651068;88;20336;-78
2021/10/06 05:32:39;;;;;;;4.60;0.80;;;10.60;99.90;;;;;;6655496;89;20224;-77
2021/10/06 05:42:39;;;;;;;5.28;0.90;;;10.70;99.90;;;;;;6655653;88;20200;-76
2021/10/06 05:52:40;;;;;;;5.35;1.00;;;10.90;99.90;;;;;;6681190;88;20221;-77
2021/10/06 06:02:47;;;;;;;3.00;0.70;;;10.80;99.90;;;;;;6667634;88;20327;-77
2021/10/06 06:12:48;;;;;;;2.47;0.70;;;10.80;99.90;;;;;;6655367;88;20228;-76
2021/10/06 06:22:49;;;;;;;4.00;0.85;;;11.00;99.90;;;;;;6648247;89;20231;-77
2021/10/06 06:32:51;;;;;;;5.22;0.93;;;11.20;99.90;;;;;;6651586;88;20194;-77
2021/10/06 06:42:52;;;;;;;3.40;0.77;;;11.40;99.90;;;;;;6668139;88;20263;-76
2021/10/06 06:52:52;;;;;;;4.80;0.70;;;11.60;99.90;;;;;;6656405;88;20215;-79
2021/10/06 07:02:53;;;;;;;3.65;0.70;;;11.90;99.90;;;;;;6659678;88;20173;-79
2021/10/06 07:12:53;;;;;;;3.47;0.60;;;12.40;99.90;;;;;;6659587;89;20210;-78
2021/10/06 07:22:54;;;;;;;3.95;0.70;;;12.80;99.90;;;;;;6722507;88;20315;-78
2021/10/06 07:32:55;;;;;;;5.33;0.80;;;12.80;99.90;;;;;;6663778;88;20321;-76
2021/10/06 07:42:55;;;;;;;3.58;0.80;;;12.70;99.90;;;;;;6667149;89;20738;-75
2021/10/06 07:52:56;;;;;;;3.05;0.80;;;12.50;99.90;;;;;;6668212;89;20199;-75
2021/10/06 08:02:57;;;;;;;4.62;0.90;;;12.30;99.90;;;;;;6659718;89;20204;-75
2021/10/06 08:12:59;;;;;;;3.65;0.85;;;12.60;99.90;;;;;;6664310;89;20264;-76
2021/10/06 08:23:01;;;;;;;6.35;0.70;;;12.30;99.90;;;;;;6663816;89;20570;-76
2021/10/06 08:33:02;;;;;;;2.45;0.70;;;11.80;99.90;;;;;;6658630;89;20201;-77
2021/10/06 08:43:04;;;;;;;4.00;1.15;;;11.80;99.90;;;;;;6655002;88;20199;-77
2021/10/06 08:53:05;;;;;;;4.82;0.93;;;11.70;99.90;;;;;;6648999;89;20188;-77
2021/10/06 09:03:08;;;;;;;4.50;0.75;;;11.80;99.90;;;;;;6648027;88;20711;-77
2021/10/06 09:13:09;;;;;;;6.35;1.02;;;12.20;99.90;;;;;;6650346;89;20743;-77
2021/10/06 09:23:12;;;;;;;3.37;0.70;;;12.40;99.90;;;;;;6651260;89;20222;-78
2021/10/06 09:33:13;;;;;;;4.03;0.62;;;12.60;99.90;;;;;;6661660;88;20186;-77
2021/10/06 09:43:15;;;;;;;4.45;0.60;;;12.50;99.90;;;;;;6683968;88;20671;-78
2021/10/06 09:53:18;;;;;;;3.40;0.70;;;12.40;99.90;;;;;;6652454;88;20227;-77
2021/10/06 10:03:20;;;;;;;1.10;0.30;;;12.60;99.90;;;;;;6655035;88;20654;-78
2021/10/06 10:13:23;;;;;;;1.00;0.40;;;12.80;99.90;;;;;;6658913;89;20288;-78
2021/10/06 10:23:24;;;;;;;2.87;0.43;;;12.90;99.90;;;;;;6682608;88;20205;-78
2021/10/06 10:33:44;;;;;;;1.50;0.30;;;12.90;99.90;;;;;;6653233;88;20942;-78
2021/10/06 10:43:57;;;;;;;1.42;0.30;;;13.00;99.90;;;;;;6650996;89;20262;-78
2021/10/06 10:53:59;;;;;;;1.92;0.43;;;12.90;99.90;;;;;;6656344;89;20475;-79
2021/10/06 11:04:16;;;;;;;1.20;0.40;;;12.10;99.90;;;;;;6660763;89;20217;-78
2021/10/06 11:14:21;;;;;;;1.62;0.40;;;11.70;99.90;;;;;;6656844;88;20193;-79
2021/10/06 11:24:23;;;;;;;1.43;0.30;;;12.50;99.90;;;;;;6653298;89;20210;-79
2021/10/06 11:34:23;;;;;;;0.85;0.20;;;13.20;99.90;;;;;;6673478;88;20250;-78
2021/10/06 11:44:32;;;;;;;0.62;0.30;;;13.50;99.90;;;;;;6656518;89;20322;-79
2021/10/06 11:54:33;;;;;;;1.20;0.30;;;13.90;99.90;;;;;;6638609;89;20194;-79
2021/10/06 12:04:39;;;;;;;1.15;0.32;;;14.60;99.90;;;;;;6645802;88;20184;-78
2021/10/06 12:14:47;;;;;;;1.08;0.22;;;14.90;99.90;;;;;;6673363;88;20285;-77
2021/10/06 12:24:48;;;;;;;1.37;0.40;;;14.10;99.90;;;;;;6650752;88;20187;-78
2021/10/06 12:35:09;;;;;;;0.75;0.30;;;14.00;99.90;;;;;;6657802;89;20210;-78
2021/10/06 12:45:12;;;;;;;1.67;0.20;;;14.00;99.90;;;;;;6661930;89;20297;-79
2021/10/06 12:55:14;;;;;;;0.52;0.20;;;14.00;99.90;;;;;;6662947;88;20175;-80
2021/10/06 13:05:14;;;;;;;2.15;0.30;;;13.70;99.90;;;;;;6669152;89;20212;-78
2021/10/06 13:15:15;;;;;;;0.90;0.23;;;13.60;99.90;;;;;;6667074;88;20195;-79
2021/10/06 13:25:16;;;;;;;0.80;0.20;;;13.60;99.90;;;;;;6664025;89;21112;-79
2021/10/06 13:35:16;;;;;;;2.33;0.30;;;13.80;99.90;;;;;;6686043;88;20207;-78
2021/10/06 13:45:18;;;;;;;0.73;0.20;;;13.80;99.90;;;;;;6672545;89;20535;-78
2021/10/06 13:55:18;;;;;;;0.88;0.20;;;13.80;99.90;;;;;;6675514;88;20227;-78
2021/10/06 14:05:19;;;;;;;0.73;0.20;;;13.70;99.90;;;;;;6669528;89;20290;-78
2021/10/06 14:15:20;;;;;;;1.15;0.40;;;13.70;99.90;;;;;;6669251;89;20355;-78
2021/10/06 14:25:21;;;;;;;0.77;0.30;;;13.60;99.90;;;;;;6668649;89;20690;-77
2021/10/06 14:35:22;;;;;;;1.20;0.50;;;13.30;99.90;;;;;;6667393;89;20271;-77
2021/10/06 14:45:25;;;;;;;1.00;0.50;;;13.00;99.90;;;;;;6671196;89;20183;-78
2021/10/06 14:55:26;;;;;;;4.03;0.82;;;13.00;99.90;;;;;;6666024;89;20220;-77
2021/10/06 15:05:27;;;;;;;1.62;0.70;;;13.00;99.90;;;;;;6666127;89;20254;-77
2021/10/06 15:15:27;;;;;;;1.95;0.80;;;13.10;99.90;;;;;;6665612;89;20199;-77
2021/10/06 15:25:28;;;;;;;2.22;0.90;;;13.10;99.90;;;;;;6667268;89;20224;-76
2021/10/06 15:35:29;;;;;;;3.50;1.20;;;13.20;99.90;;;;;;6665330;89;20279;-77
2021/10/06 15:45:30;;;;;;;3.55;1.00;;;13.20;99.90;;;;;;6665499;89;20316;-77
2021/10/06 15:55:31;;;;;;;3.55;1.12;;;13.30;99.90;;;;;;6664668;89;20671;-77
2021/10/06 16:05:31;;;;;;;3.37;1.10;;;13.10;99.90;;;;;;6650089;88;20217;-77
2021/10/06 16:15:32;;;;;;;3.95;1.15;;;12.90;99.90;;;;;;6669452;88;20303;-77
2021/10/06 16:25:32;;;;;;;3.30;1.23;;;12.70;99.90;;;;;;6648390;89;20223;-77
2021/10/06 16:35:33;;;;;;;2.58;1.20;;;12.60;99.90;;;;;;6648383;88;20357;-77
2021/10/06 16:45:33;;;;;;;4.78;1.20;;;12.50;99.90;;;;;;6648331;89;20293;-77
2021/10/06 16:55:34;;;;;;;4.82;1.17;;;12.40;99.90;;;;;;6651631;88;20216;-76
2021/10/06 17:05:36;;;;;;;2.57;1.20;;;12.40;99.90;;;;;;6662051;88;20184;-77
2021/10/06 17:15:37;;;;;;;4.30;1.12;;;12.30;99.90;;;;;;6645232;88;20538;-79
2021/10/06 17:25:38;;;;;;;3.47;1.40;;;12.30;99.90;;;;;;6652163;88;20196;-78
2021/10/06 17:35:39;;;;;;;5.62;1.60;;;12.10;99.90;;;;;;6649271;88;20199;-76
2021/10/06 17:45:40;;;;;;;3.00;1.50;;;11.70;99.90;;;;;;6651745;88;20232;-76
2021/10/06 17:55:41;;;;;;;3.87;1.90;;;11.60;99.90;;;;;;6650556;89;20212;-77
2021/10/06 18:05:42;;;;;;;4.97;1.67;;;11.50;99.90;;;;;;6653674;88;20210;-79
2021/10/06 18:15:43;;;;;;;3.95;1.87;;;11.50;99.90;;;;;;6735637;88;20791;-79
2021/10/06 18:25:46;;;;;;;3.70;1.90;;;11.40;99.90;;;;;;6736916;88;20193;-77
2021/10/06 18:35:47;;;;;;;3.62;2.00;;;11.50;99.90;;;;;;6735545;88;20176;-78
2021/10/06 18:45:47;;;;;;;4.07;1.95;;;11.60;99.90;;;;;;6646921;88;20214;-78
2021/10/06 18:55:48;;;;;;;9.00;2.60;;;11.50;99.90;;;;;;6636539;89;20201;-78
2021/10/06 19:05:49;;;;;;;6.35;1.77;;;11.50;99.90;;;;;;6643338;89;20768;-76
2021/10/06 19:15:50;;;;;;;6.25;2.37;;;11.70;99.90;;;;;;6654006;88;20285;-76
2021/10/06 19:25:51;;;;;;;5.87;1.92;;;11.70;99.90;;;;;;6648689;89;20195;-77
2021/10/06 19:35:52;;;;;;;4.22;2.17;;;11.70;99.90;;;;;;6649538;88;20198;-77
2021/10/06 19:45:53;;;;;;;4.90;2.30;;;11.50;99.90;;;;;;6649413;89;20197;-77
2021/10/06 19:55:54;;;;;;;5.45;2.20;;;11.50;99.90;;;;;;6650043;89;20248;-77
2021/10/06 20:05:57;;;;;;;5.20;2.00;;;11.50;99.90;;;;;;6650458;89;20270;-77
2021/10/06 20:15:58;;;;;;;4.53;2.12;;;11.50;99.90;;;;;;6648937;89;20275;-77
2021/10/06 20:25:58;;;;;;;4.47;1.92;;;11.60;99.90;;;;;;6670128;88;20222;-77
2021/10/06 20:36:17;;;;;;;5.30;2.10;;;11.70;99.90;;;;;;6647963;88;20349;-77
2021/10/06 20:46:18;;;;;;;5.87;2.50;;;11.50;99.90;;;;;;6644646;89;20535;-76
2021/10/06 20:56:19;;;;;;;6.05;2.90;;;11.50;99.90;;;;;;6674591;88;20220;-76
2021/10/06 21:06:19;;;;;;;5.68;3.12;;;11.40;99.90;;;;;;6660915;78;20215;-76
2021/10/06 21:16:20;;;;;;;8.80;3.67;;;11.60;99.90;;;;;;6760483;87;20715;-76
2021/10/06 21:26:20;;;;;;;7.55;3.92;;;11.50;99.90;;;;;;6757226;87;20948;-76
2021/10/06 21:36:21;;;;;;;7.55;4.37;;;11.40;99.90;;;;;;6763096;87;20203;-75
2021/10/06 21:46:21;;;;;;;8.80;4.10;;;11.40;99.90;;;;;;6764465;87;21017;-75
2021/10/06 21:56:23;;;;;;;11.23;4.70;;;11.60;99.90;;;;;;6763128;87;20368;-75
2021/10/06 22:06:24;;;;;;;8.32;4.40;;;11.50;99.90;;;;;;6756877;87;20235;-75
2021/10/06 22:16:25;;;;;;;10.55;5.40;;;11.60;99.90;;;;;;6692756;87;20308;-76
2021/10/06 22:26:25;;;;;;;11.12;5.70;;;11.50;99.90;;;;;;6693945;88;20186;-75
2021/10/06 22:36:26;;;;;;;11.60;6.50;;;11.60;99.90;;;;;;6702925;87;20192;-75
2021/10/06 22:46:26;;;;;;;11.90;6.70;;;11.60;99.90;;;;;;6706396;87;20233;-76
2021/10/06 22:56:27;;;;;;;15.85;8.27;;;11.70;99.90;;;;;;6695316;87;20195;-75
2021/10/06 23:06:27;;;;;;;13.10;7.82;;;11.60;99.90;;;;;;6686632;87;20251;-75
2021/10/06 23:16:28;;;;;;;14.43;7.90;;;11.60;99.90;;;;;;6690813;88;20251;-75
2021/10/06 23:26:28;;;;;;;15.55;8.90;;;11.70;99.90;;;;;;6690545;88;20202;-75
2021/10/06 23:36:29;;;;;;;19.10;8.52;;;11.60;99.90;;;;;;6691692;87;20251;-75
2021/10/06 23:46:30;;;;;;;14.85;8.20;;;11.60;99.90;;;;;;6691020;88;20179;-75
2021/10/06 23:56:30;;;;;;;15.35;7.30;;;11.80;99.90;;;;;;6692481;88;20198;-75
